tie-a-tie.net alexa rank chart, tie-a-tie.net alexa rank daily changes

tie-a-tie.net alexa rank chart, tie-a-tie.net alexa rank daily changes

tie-a-tie.net
Actual rank:
190 781

RANK HISTORY

Date Rank Diff
2017/03/27 190 781 +1 453
2017/03/26 189 328 +477
2017/03/25 188 851 -4 453
2017/03/24 193 304 -2 454
2017/03/23 195 758 -1 199
2017/03/22 196 957 +4 019
2017/03/21 192 938 +3 392
2017/03/20 189 546 -4 581
2017/03/19 194 127 -790
2017/03/18 194 917 -6 363
2017/03/17 201 280 +41
2017/03/16 201 239 -3 392
2017/03/15 204 631 +557
2017/03/14 204 074 +8 227
2017/03/13 195 847 -4 777
2017/03/12 200 624 -7 754
2017/03/11 208 378 -9 030
2017/03/10 217 408 -2 905
2017/03/09 220 313 +3 734
2017/03/08 216 579 -14 752
2017/03/07 231 331 +7 926
2017/03/06 223 405 -1 351
2017/03/01 224 756 +4 826
2017/02/28 219 930 -8 528
2017/02/27 228 458 -1 282
2017/02/26 229 740 -1 467
2017/02/25 231 207 -4 265
2017/02/24 235 472 -1 068
2017/02/23 236 540 -2 216
2017/02/22 238 756 -3 840
2017/02/21 242 596 -11 511
2017/02/20 254 107 -528
2017/02/19 254 635 -16 262
2017/02/18 270 897 -1 824
2017/02/17 272 721 +3 342
2017/02/16 269 379 -413
2017/02/15 269 792 -339
2017/02/14 270 131 -13 389
2017/02/13 283 520 +2 237
2017/02/12 281 283 -1 403
2017/02/11 282 686 -3 338
2017/02/10 286 024 -406
2017/02/09 286 430 -6 080
2017/02/08 292 510 -4 370
2017/02/07 296 880 -1 915
2017/02/06 298 795 -7 744
2017/02/05 306 539 -346
2017/02/04 306 885 +10 077
2017/02/03 296 808 -16 896
2017/02/02 313 704 +6 468
2017/02/01 307 236 +5 368
2017/01/31 301 868 -2 674
2017/01/30 304 542 -6 556
2017/01/29 311 098 -12 919
2017/01/28 324 017 +3 881
2017/01/27 320 136 +1 347
2017/01/26 318 789

WIDGET FOR YOUR SITE

DOMAINS WITH THE NEAREST RANK

Domain Rank
namefbcovers.com 190 776
jaish.gr.jp 190 777
lavozdemichoacan.com.mx 190 778
mdst.it 190 779
countercurrents.org 190 780
tie-a-tie.net 190 781
cruiselines.com 190 782
rustv-player.ru 190 783
theseasonedmom.com 190 784
trello.services 190 785
livebignews.ru 190 786

DOMAINS WITH THE NEAREST RANK BY TLD .net

Domain Rank
freeprintablecertificates.net 190 600
nuggad.net 190 672
chat-shuffle.net 190 741
warriorsworld.net 190 746
sonokinetic.net 190 770
tie-a-tie.net 190 781
mirtankov.net 190 790
ppwx.net 190 814
weetnow.net 190 825
propertyboss.net 190 882
uboat.net 190 899